Megri, Armenia

8:54 PM AMT on October 30, 2014 (GMT +0400)
NAKHCHIVAN | Change Station
CLOSE
Current Station
Airport
Location: NAKHCHIVAN,
Elevation: 2864 ft
Nearby Weather Stations

Elev 2864 ft 39.19 °N, 45.46 °E | Updated 24 minutes ago

Partly Cloudy
Partly Cloudy
48 °F
Feels Like 48 °F
N
7
Wind Variable Wind from SE

Today
High -- | Low -- °F
--% Chance of Precip.
Yesterday
High -- | Low -- °F
Precip. -- in
7:19 AM 5:57 PM
Waxing Crescent, 45% visible
Pressure 30.06 in
Visibility 6.2 miles
Clouds Few 10000 ft
Dew Point 39 °F
Humidity 71%
Rainfall 0.00 in
Snow Depth Not available.
UV 0 out of 12
Pollen Not available.
Air Quality Not available.
Flu Activity Not available.
METAR UBBN 301630Z 13006KT 9999 FEW100 09/04 Q1018 R14R/CLRD60 NOSIG RMK MT OP QFE688

More Conditions Fewer Conditions

Pressure 30.06 in
Visibility 6.2 miles
Clouds Few 10000 ft
Dew Point 39 °F
Humidity 71%
Rainfall 0.00 in
Snow Depth Not available.
UV 0 out of 12
Pollen Not available.
Air Quality Not available.
Flu Activity Not available.
METAR UBBN 301630Z 13006KT 9999 FEW100 09/04 Q1018 R14R/CLRD60 NOSIG RMK MT OP QFE688

More Conditions Fewer Conditions

10-Day Weather Forecast

Almanac

Astronomy

Oct. 30, 2014 Rise Set
Actual Time
Civil Twilight
Nautical Twilight
Astronomical Twilight
Moon
Length of Visible Light
Length of Day
Tomorrow will be .
, % of the Moon is Illuminated

Today's Extremes

Country Highs Country Lows

Community

WunderPhotos

Upload Photos

1,766,402 photos uploaded!

WunderBlogs® & News

Nearby

Air Quality

  Air Quality AQ Index Pollutant
Not available.

Snow Depth

Station Depth Elevation

Earthquake Activity

City Distance Mag. Time & Date
Minimum magnitude displayed is 2.5.

Coastal Water Temperatures

Place Temperature

Nearby Weather Stations